Austin, TX

1:57 AM CDT op 03 september 2014 (GMT -0500)
Austin | Change Station
CLOSE
Current Station
Luchthaven
Location: Austin,
Geometrische hoogte: 656 ft
Nabije weerstations

Hoogte 656 ft 30.32 °N, 97.76 °W | Updated 6 minutes ago

Clear
Helder
79 °F
Voelt als 79 °F
N
5
Wind Variabel Wind van zuid

Vandaag
Hoog -- | Laag -- °F
--% Kans op neerslag
Gisteren
Hoog -- | Laag -- °F
Precip. -- inches
7:08 AM 7:51 PM
Eerste kwartier, 59% visible
Druk 29.92 inches
Zicht 10.0 mijlen
Wolken Helder
Dauwpunt 71 °F
Vochtigheid 77%
Neerslag 0.00 inches
Dikte sneeuw Niet beschikbaar.
UV 0 van de 12
Pollen 8.40 van de 12
Ozon Goed
PM2.5 Goed
Flu Activity Niet beschikbaar.
METAR KATT 030651Z AUTO 18004KT 10SM CLR 26/22 A2997 RMK AO2 SLP132 T02610217

More Conditions Fewer Conditions

Druk 29.92 inches
Zicht 10.0 mijlen
Wolken Helder
Dauwpunt 71 °F
Vochtigheid 77%
Neerslag 0.00 inches
Dikte sneeuw Niet beschikbaar.
UV 0 van de 12
Pollen 8.40 van de 12
Ozon Goed
PM2.5 Goed
Flu Activity Niet beschikbaar.
METAR KATT 030651Z AUTO 18004KT 10SM CLR 26/22 A2997 RMK AO2 SLP132 T02610217

More Conditions Fewer Conditions

10-Day Weather Forecast

Almanac

Astronomie

Sep. 03, 2014 Opkomst Ondergang
Werkelijke tijd 7:08 AM CDT 7:51 PM CDT
Burgerlijke schemering 6:44 AM CDT 8:15 PM CDT
Nautische schemering 6:15 AM CDT 8:44 PM CDT
Astronomische schemering 5:46 AM CDT 9:13 PM CDT
Maan 3:21 PM CDT 1:17 AM CDT
Golflengte van het zichtbare licht 13h 31m
Daglengte
12h 42m
Tomorrow will be 1m 46s shorter.
Eerste kwartier, 59% of the Moon is Illuminated
Vandaag
Eerste kwartier
sep 8
Volle maan
sep 15
Laatste kwartier
sep 24
Nieuw
oktober 1
Eerste kwartier

Extremen vandaag

State Highs State Lows

Community

WunderPhotos

Upload Photos

1,749,888 foto’s ge-upload!

Nearby

Luchtkwaliteit

  Luchtkwaliteit LK-index Verontreinigende stof
Gisteren Goed
OZONE
Gisteren Goed
PM2.5
Actueel Goed
PM2.5
Actueel Goed
OZONE
woensdag Goed
OZONE
woensdag Goed
PM10
donderdag Goed
OZONE
donderdag Goed
PM10

Dikte sneeuw

Station Depth Geometrische hoogte
Er is geen verse sneeuw gerapporteerd.

Aardbevingen

Stad Distance Mag. Time & Date
No recent earthquake activity has been reported nearby.
Minimum magnitude displayed is 2.5.

Watertemperatuur langs de kust

Plaats Temperatuur
Geen meldingen van stations

Nabije weerstations